ARA Libertad — LOLD — position and weather

sailwx.info

Track history (hours):
 
Tides and Currents Weather Stations Pressure Air Temp Water Temp Dewpoint Dewpoint Depression Visibility Wind Speed Wind Dir Waves Ship Positions

ARA Libertad (Argentina)

Last reported at 2018-Sep-29 12:46 UTC. Time now 2018-Dec-12 05:00 UTC.
Position N 38°56' W 076°24'.
Warning: this ship's position is months out of date.

Length 104 m; draft 6.5 m.

Type: Other ship. MMSI: 701000001.

Date/timePositionNaut miles runAvg speedWind from/ knotsBaromVisibWave heightAir tempDewpointWater temp
2018-Sep-29 12:46N 38°56' W 076°24'311.0
2018-Sep-29 12:30N 38°59' W 076°23'510.2
2018-Sep-29 12:01N 39°04' W 076°24'011.5
2018-Sep-29 11:59N 39°04' W 076°24'510.4
2018-Sep-29 11:29N 39°09' W 076°25'510.6
2018-Sep-29 11:03N 39°12' W 076°30'110.9
2018-Sep-29 11:00N 39°12' W 076°31'4 6.9
2018-Sep-29 10:29N 39°15' W 076°33'0 0.0
2018-Sep-29 09:56N 39°15' W 076°33'0 0.0
2018-Sep-29 09:29N 39°15' W 076°33'0 0.0
2018-Sep-29 08:59N 39°15' W 076°33'0 0.0
2018-Sep-29 08:20N 39°15' W 076°33'0 0.0
2018-Sep-29 07:56N 39°15' W 076°33'0 0.0
2018-Sep-29 07:29N 39°15' W 076°33'0 0.0
2018-Sep-29 06:59N 39°15' W 076°33'0 0.0
2018-Sep-29 06:29N 39°15' W 076°33'0 0.0
2018-Sep-29 06:02N 39°15' W 076°33'0 0.0
2018-Sep-29 05:59N 39°15' W 076°33'0 0.0
2018-Sep-29 05:29N 39°15' W 076°33'0 0.0
2018-Sep-29 05:02N 39°15' W 076°33'0 0.1
2018-Sep-29 04:59N 39°15' W 076°33'0 0.0
2018-Sep-29 04:29N 39°15' W 076°33'0 0.0
2018-Sep-29 04:02N 39°15' W 076°33'0 0.2
2018-Sep-29 03:59N 39°15' W 076°33'0 0.0
2018-Sep-29 03:29N 39°15' W 076°33'0 0.0
2018-Sep-29 03:02N 39°15' W 076°33'0 0.0
2018-Sep-29 02:59N 39°15' W 076°33'0 0.0
2018-Sep-29 02:29N 39°15' W 076°33'0 0.0
2018-Sep-29 02:02N 39°15' W 076°33'0 0.0
2018-Sep-29 01:56N 39°15' W 076°33'0 0.0
2018-Sep-29 01:29N 39°15' W 076°33'0 0.0
2018-Sep-29 01:02N 39°15' W 076°33'0 0.0
2018-Sep-29 00:59N 39°15' W 076°33'0 0.0
2018-Sep-29 00:29N 39°15' W 076°33'0 0.0
2018-Sep-29 00:02N 39°15' W 076°33'0 0.1
2018-Sep-28 23:59N 39°15' W 076°33'0 0.0
2018-Sep-28 23:29N 39°15' W 076°33'0 0.0
2018-Sep-28 23:02N 39°15' W 076°33'0 0.1
2018-Sep-28 22:59N 39°15' W 076°33'0 0.0
2018-Sep-28 22:29N 39°15' W 076°33'0 0.0
2018-Sep-28 22:02N 39°15' W 076°33'0 0.0
2018-Sep-28 21:56N 39°15' W 076°33'0 0.0
2018-Sep-28 21:29N 39°15' W 076°33'0 0.0
2018-Sep-28 21:02N 39°15' W 076°33'0 0.0
2018-Sep-28 20:59N 39°15' W 076°33'0 0.0
2018-Sep-28 20:29N 39°15' W 076°33'0 0.1
2018-Sep-28 20:02N 39°15' W 076°33'0 0.0
2018-Sep-28 19:59N 39°15' W 076°33'0 0.0
2018-Sep-28 19:26N 39°15' W 076°33'0 0.0
2018-Sep-28 18:59N 39°15' W 076°33'0 0.0
2018-Sep-28 18:23N 39°15' W 076°33'0 0.0
2018-Sep-28 18:02N 39°15' W 076°33'0 0.1
2018-Sep-28 17:59N 39°15' W 076°33'0 0.0
2018-Sep-28 17:29N 39°15' W 076°33'0 0.0
2018-Sep-28 17:02N 39°15' W 076°33'0 0.0
2018-Sep-28 16:59N 39°15' W 076°33'0 0.0
2018-Sep-28 16:29N 39°15' W 076°33'0 0.0
2018-Sep-28 16:02N 39°15' W 076°33'0 0.0
2018-Sep-28 15:59N 39°15' W 076°33'0 0.0
2018-Sep-28 15:29N 39°15' W 076°33'0 0.0
2018-Sep-28 15:02N 39°15' W 076°33'0 0.0
2018-Sep-28 14:53N 39°15' W 076°33'0 0.0
2018-Sep-28 14:02N 39°15' W 076°33'0 0.2
2018-Sep-28 13:29N 39°15' W 076°33'2 4.1
2018-Sep-28 13:03N 39°16' W 076°35'0 5.9
2018-Sep-28 13:00N 39°17' W 076°35'1 2.5
2018-Sep-28 12:29N 39°17' W 076°37'0 0.0
2018-Sep-28 12:02N 39°17' W 076°37'0 0.0
2018-Sep-28 11:59N 39°17' W 076°37'0 0.0
2018-Sep-28 11:29N 39°17' W 076°37'  
2018-Sep-23 00:43N 39°17' W 076°37'0 0.0
2018-Sep-23 00:16N 39°17' W 076°37'0 0.0
2018-Sep-23 00:01N 39°17' W 076°37'0 0.1
2018-Sep-22 23:55N 39°17' W 076°37'0 0.0
2018-Sep-22 22:28N 39°17' W 076°37'0 0.0
2018-Sep-22 22:01N 39°17' W 076°37'0 0.0
2018-Sep-22 21:49N 39°17' W 076°37'0 0.0
2018-Sep-22 21:19N 39°17' W 076°37'0 0.0
2018-Sep-22 20:55N 39°17' W 076°37'0 0.0
2018-Sep-22 20:28N 39°17' W 076°37'0 0.0
2018-Sep-22 20:01N 39°17' W 076°37'0 0.1
2018-Sep-22 19:55N 39°17' W 076°37'0 0.0
2018-Sep-22 19:22N 39°17' W 076°37'0 0.0
2018-Sep-22 18:58N 39°17' W 076°37'0 0.0
2018-Sep-22 18:28N 39°17' W 076°37'0 0.0
2018-Sep-22 17:46N 39°17' W 076°37'0 0.0
2018-Sep-22 17:22N 39°17' W 076°37'0 0.0
2018-Sep-22 16:58N 39°17' W 076°37'0 0.0
2018-Sep-22 16:22N 39°17' W 076°37'0 0.0
2018-Sep-22 14:23N 39°17' W 076°37'0 0.0
2018-Sep-22 13:59N 39°17' W 076°37'0 0.0
2018-Sep-22 13:29N 39°17' W 076°37'0 0.0
2018-Sep-22 13:02N 39°17' W 076°37'0 0.0
2018-Sep-22 12:59N 39°17' W 076°37'0 0.0
2018-Sep-22 12:29N 39°17' W 076°37'0 0.0
2018-Sep-22 12:02N 39°17' W 076°37'0 0.1
2018-Sep-22 11:59N 39°17' W 076°37'0 0.0
2018-Sep-22 11:29N 39°17' W 076°37'0 0.0
2018-Sep-22 11:02N 39°17' W 076°37'0 0.0
2018-Sep-22 10:59N 39°17' W 076°37'0 0.0
2018-Sep-22 10:23N 39°17' W 076°37'0 0.0
2018-Sep-22 10:02N 39°17' W 076°37'0 0.0
2018-Sep-22 09:56N 39°17' W 076°37'0 0.0
2018-Sep-22 09:29N 39°17' W 076°37'0 0.0
2018-Sep-22 09:02N 39°17' W 076°37'0 0.0
2018-Sep-22 08:59N 39°17' W 076°37'0 0.0
2018-Sep-22 08:29N 39°17' W 076°37'0 0.0
2018-Sep-22 07:59N 39°17' W 076°37'0 0.0
2018-Sep-22 07:29N 39°17' W 076°37'0 0.0
2018-Sep-22 07:02N 39°17' W 076°37'0 0.0
2018-Sep-22 06:59N 39°17' W 076°37'0 0.0
2018-Sep-22 06:29N 39°17' W 076°37'0 0.0
2018-Sep-22 05:59N 39°17' W 076°37'0 0.0
2018-Sep-22 05:29N 39°17' W 076°37'0 0.0
2018-Sep-22 05:02N 39°17' W 076°37'0 0.0
2018-Sep-22 04:59N 39°17' W 076°37'0 0.0
2018-Sep-22 04:29N 39°17' W 076°37'0 0.0
2018-Sep-22 04:02N 39°17' W 076°37'0 0.1
2018-Sep-22 03:59N 39°17' W 076°37'0 0.0
2018-Sep-22 03:29N 39°17' W 076°37'0 0.0
2018-Sep-22 03:02N 39°17' W 076°37'0 0.0
2018-Sep-22 02:59N 39°17' W 076°37'0 0.0
2018-Sep-22 02:29N 39°17' W 076°37'0 0.0
2018-Sep-22 01:59N 39°17' W 076°37'0 0.0
2018-Sep-22 01:29N 39°17' W 076°37'0 0.0
2018-Sep-22 00:59N 39°17' W 076°37'0 0.0
2018-Sep-22 00:23N 39°17' W 076°37'0 0.0
2018-Sep-21 23:59N 39°17' W 076°37'0 0.0
2018-Sep-21 23:29N 39°17' W 076°37'0 0.0
2018-Sep-21 22:59N 39°17' W 076°37'0 0.0
2018-Sep-21 22:29N 39°17' W 076°37'0 0.0
2018-Sep-21 22:02N 39°17' W 076°37'0 0.1
2018-Sep-21 21:59N 39°17' W 076°37'0 0.0
2018-Sep-21 21:23N 39°17' W 076°37'0 0.0
2018-Sep-21 21:02N 39°17' W 076°37'0 0.0
2018-Sep-21 20:59N 39°17' W 076°37'0 0.0
2018-Sep-21 20:29N 39°17' W 076°37'1 1.4
2018-Sep-21 20:03N 39°17' W 076°36'0 1.1
2018-Sep-21 19:58N 39°17' W 076°36'2 4.6
2018-Sep-21 19:30N 39°15' W 076°34'2 3.3
2018-Sep-21 19:01N 39°14' W 076°32'0 0.1
2018-Sep-21 18:58N 39°14' W 076°32'0 0.0
2018-Sep-21 18:28N 39°14' W 076°32'0 0.0
2018-Sep-21 17:52N 39°14' W 076°32'0 0.0
2018-Sep-21 17:30N 39°14' W 076°32'0 0.0
2018-Sep-21 17:03N 39°14' W 076°32'0 0.0
2018-Sep-21 17:00N 39°14' W 076°32'0 0.0
2018-Sep-21 16:29N 39°14' W 076°32'0 0.0
2018-Sep-21 16:03N 39°14' W 076°32'0 0.0
2018-Sep-21 16:00N 39°14' W 076°32'0 0.0
2018-Sep-21 15:30N 39°14' W 076°32'0 0.0
2018-Sep-21 15:03N 39°14' W 076°32'0 0.0
2018-Sep-21 15:00N 39°14' W 076°32'0 0.0
2018-Sep-21 14:30N 39°14' W 076°32'0 0.0
2018-Sep-21 13:31N 39°14' W 076°32'0 0.0
2018-Sep-21 13:03N 39°14' W 076°32'0 0.1
2018-Sep-21 13:00N 39°14' W 076°32'0 0.0
2018-Sep-21 12:30N 39°14' W 076°32'0 0.0
2018-Sep-21 12:03N 39°14' W 076°32'0 0.0
2018-Sep-21 12:00N 39°14' W 076°32'0 0.0
2018-Sep-21 11:30N 39°14' W 076°32'0 0.0
2018-Sep-21 11:03N 39°14' W 076°32'0 0.0
2018-Sep-21 11:00N 39°14' W 076°32'0 0.0
2018-Sep-21 10:30N 39°14' W 076°32'0 0.0
2018-Sep-21 10:03N 39°14' W 076°32'0 0.0
2018-Sep-21 10:00N 39°14' W 076°32'0 0.0
2018-Sep-21 09:30N 39°14' W 076°32'0 0.0
2018-Sep-21 09:03N 39°14' W 076°32'0 0.0
2018-Sep-21 09:00N 39°14' W 076°32'0 0.0
2018-Sep-21 08:30N 39°14' W 076°33'0 0.0
2018-Sep-21 08:03N 39°14' W 076°32'0 0.0
2018-Sep-21 08:00N 39°14' W 076°32'0 0.0
2018-Sep-21 07:30N 39°14' W 076°32'0 0.0
2018-Sep-21 07:03N 39°14' W 076°33'0 0.0
2018-Sep-21 07:00N 39°14' W 076°33'0 0.0
2018-Sep-21 06:30N 39°14' W 076°33'0 0.0
2018-Sep-21 06:03N 39°14' W 076°32'0 0.0
2018-Sep-21 06:00N 39°14' W 076°32'0 0.0
2018-Sep-21 05:30N 39°14' W 076°33'0 0.0
2018-Sep-21 05:03N 39°14' W 076°32'0 0.0
2018-Sep-21 05:00N 39°14' W 076°32'0 0.0
2018-Sep-21 04:31N 39°14' W 076°32'0 0.0
2018-Sep-21 04:03N 39°14' W 076°32'0 0.1
2018-Sep-21 04:00N 39°14' W 076°32'0 0.0
2018-Sep-21 03:30N 39°14' W 076°32'0 0.0
2018-Sep-21 03:03N 39°14' W 076°32'0 0.0
2018-Sep-21 03:00N 39°14' W 076°32'0 0.0
2018-Sep-21 02:29N 39°14' W 076°33'0 0.0
2018-Sep-21 02:03N 39°14' W 076°33'0 0.0
2018-Sep-21 02:00N 39°14' W 076°33'0 0.0
2018-Sep-21 01:31N 39°14' W 076°33'0 0.0
2018-Sep-21 01:03N 39°14' W 076°33'0 0.1
2018-Sep-21 01:01N 39°14' W 076°33'0 0.0
2018-Sep-21 00:30N 39°14' W 076°33'0 0.0
2018-Sep-21 00:03N 39°14' W 076°33'0 0.2
2018-Sep-21 00:00N 39°14' W 076°33'0 0.0
2018-Sep-20 23:30N 39°14' W 076°33'0 0.0
2018-Sep-20 23:03N 39°14' W 076°33'0 0.0
2018-Sep-20 23:00N 39°14' W 076°33'0 0.0
2018-Sep-20 22:30N 39°14' W 076°33'0 0.0
2018-Sep-20 22:03N 39°14' W 076°33'0 0.1
2018-Sep-20 22:00N 39°14' W 076°33'0 0.0
2018-Sep-20 21:30N 39°14' W 076°33'0 0.0
2018-Sep-20 21:03N 39°14' W 076°33'0 0.0
2018-Sep-20 21:00N 39°14' W 076°33'0 0.0
2018-Sep-20 20:30N 39°14' W 076°33'0 0.0
2018-Sep-20 20:03N 39°14' W 076°33'0 0.2
2018-Sep-20 20:00N 39°14' W 076°33'0 0.1
2018-Sep-20 19:30N 39°14' W 076°32'2 4.3
2018-Sep-20 19:03N 39°12' W 076°31'0 6.7
2018-Sep-20 19:00N 39°12' W 076°31'4 8.9
2018-Sep-20 18:30N 39°10' W 076°26'  
Track history (hours):
 
Tides and Currents Weather Stations Pressure Air Temp Water Temp Dewpoint Dewpoint Depression Visibility Wind Speed Wind Dir Waves Ship Positions

ARA Libertad (Argentina)

Last reported at 2018-Sep-29 12:46 UTC. Time now 2018-Dec-12 05:00 UTC.
Position N 38°56' W 076°24'.
Warning: this ship's position is months out of date.

Length 104 m; draft 6.5 m.

Type: Other ship. MMSI: 701000001.

Date/timePositionNaut miles runAvg speedWind from/ knotsBaromVisibWave heightAir tempDewpointWater temp
2018-Sep-29 12:46N 38°56' W 076°24'311.0
2018-Sep-29 12:30N 38°59' W 076°23'510.2
2018-Sep-29 12:01N 39°04' W 076°24'011.5
2018-Sep-29 11:59N 39°04' W 076°24'510.4
2018-Sep-29 11:29N 39°09' W 076°25'510.6
2018-Sep-29 11:03N 39°12' W 076°30'110.9
2018-Sep-29 11:00N 39°12' W 076°31'4 6.9
2018-Sep-29 10:29N 39°15' W 076°33'0 0.0
2018-Sep-29 09:56N 39°15' W 076°33'0 0.0
2018-Sep-29 09:29N 39°15' W 076°33'0 0.0
2018-Sep-29 08:59N 39°15' W 076°33'0 0.0
2018-Sep-29 08:20N 39°15' W 076°33'0 0.0
2018-Sep-29 07:56N 39°15' W 076°33'0 0.0
2018-Sep-29 07:29N 39°15' W 076°33'0 0.0
2018-Sep-29 06:59N 39°15' W 076°33'0 0.0
2018-Sep-29 06:29N 39°15' W 076°33'0 0.0
2018-Sep-29 06:02N 39°15' W 076°33'0 0.0
2018-Sep-29 05:59N 39°15' W 076°33'0 0.0
2018-Sep-29 05:29N 39°15' W 076°33'0 0.0
2018-Sep-29 05:02N 39°15' W 076°33'0 0.1
2018-Sep-29 04:59N 39°15' W 076°33'0 0.0
2018-Sep-29 04:29N 39°15' W 076°33'0 0.0
2018-Sep-29 04:02N 39°15' W 076°33'0 0.2
2018-Sep-29 03:59N 39°15' W 076°33'0 0.0
2018-Sep-29 03:29N 39°15' W 076°33'0 0.0
2018-Sep-29 03:02N 39°15' W 076°33'0 0.0
2018-Sep-29 02:59N 39°15' W 076°33'0 0.0
2018-Sep-29 02:29N 39°15' W 076°33'0 0.0
2018-Sep-29 02:02N 39°15' W 076°33'0 0.0
2018-Sep-29 01:56N 39°15' W 076°33'0 0.0
2018-Sep-29 01:29N 39°15' W 076°33'0 0.0
2018-Sep-29 01:02N 39°15' W 076°33'0 0.0
2018-Sep-29 00:59N 39°15' W 076°33'0 0.0
2018-Sep-29 00:29N 39°15' W 076°33'0 0.0
2018-Sep-29 00:02N 39°15' W 076°33'0 0.1
2018-Sep-28 23:59N 39°15' W 076°33'0 0.0
2018-Sep-28 23:29N 39°15' W 076°33'0 0.0
2018-Sep-28 23:02N 39°15' W 076°33'0 0.1
2018-Sep-28 22:59N 39°15' W 076°33'0 0.0
2018-Sep-28 22:29N 39°15' W 076°33'0 0.0
2018-Sep-28 22:02N 39°15' W 076°33'0 0.0
2018-Sep-28 21:56N 39°15' W 076°33'0 0.0
2018-Sep-28 21:29N 39°15' W 076°33'0 0.0
2018-Sep-28 21:02N 39°15' W 076°33'0 0.0
2018-Sep-28 20:59N 39°15' W 076°33'0 0.0
2018-Sep-28 20:29N 39°15' W 076°33'0 0.1
2018-Sep-28 20:02N 39°15' W 076°33'0 0.0
2018-Sep-28 19:59N 39°15' W 076°33'0 0.0
2018-Sep-28 19:26N 39°15' W 076°33'0 0.0
2018-Sep-28 18:59N 39°15' W 076°33'0 0.0
2018-Sep-28 18:23N 39°15' W 076°33'0 0.0
2018-Sep-28 18:02N 39°15' W 076°33'0 0.1
2018-Sep-28 17:59N 39°15' W 076°33'0 0.0
2018-Sep-28 17:29N 39°15' W 076°33'0 0.0
2018-Sep-28 17:02N 39°15' W 076°33'0 0.0
2018-Sep-28 16:59N 39°15' W 076°33'0 0.0
2018-Sep-28 16:29N 39°15' W 076°33'0 0.0
2018-Sep-28 16:02N 39°15' W 076°33'0 0.0
2018-Sep-28 15:59N 39°15' W 076°33'0 0.0
2018-Sep-28 15:29N 39°15' W 076°33'0 0.0
2018-Sep-28 15:02N 39°15' W 076°33'0 0.0
2018-Sep-28 14:53N 39°15' W 076°33'0 0.0
2018-Sep-28 14:02N 39°15' W 076°33'0 0.2
2018-Sep-28 13:29N 39°15' W 076°33'2 4.1
2018-Sep-28 13:03N 39°16' W 076°35'0 5.9
2018-Sep-28 13:00N 39°17' W 076°35'1 2.5
2018-Sep-28 12:29N 39°17' W 076°37'0 0.0
2018-Sep-28 12:02N 39°17' W 076°37'0 0.0
2018-Sep-28 11:59N 39°17' W 076°37'0 0.0
2018-Sep-28 11:29N 39°17' W 076°37'  
2018-Sep-23 00:43N 39°17' W 076°37'0 0.0
2018-Sep-23 00:16N 39°17' W 076°37'0 0.0
2018-Sep-23 00:01N 39°17' W 076°37'0 0.1
2018-Sep-22 23:55N 39°17' W 076°37'0 0.0
2018-Sep-22 22:28N 39°17' W 076°37'0 0.0
2018-Sep-22 22:01N 39°17' W 076°37'0 0.0
2018-Sep-22 21:49N 39°17' W 076°37'0 0.0
2018-Sep-22 21:19N 39°17' W 076°37'0 0.0
2018-Sep-22 20:55N 39°17' W 076°37'0 0.0
2018-Sep-22 20:28N 39°17' W 076°37'0 0.0
2018-Sep-22 20:01N 39°17' W 076°37'0 0.1
2018-Sep-22 19:55N 39°17' W 076°37'0 0.0
2018-Sep-22 19:22N 39°17' W 076°37'0 0.0
2018-Sep-22 18:58N 39°17' W 076°37'0 0.0
2018-Sep-22 18:28N 39°17' W 076°37'0 0.0
2018-Sep-22 17:46N 39°17' W 076°37'0 0.0
2018-Sep-22 17:22N 39°17' W 076°37'0 0.0
2018-Sep-22 16:58N 39°17' W 076°37'0 0.0
2018-Sep-22 16:22N 39°17' W 076°37'0 0.0
2018-Sep-22 14:23N 39°17' W 076°37'0 0.0
2018-Sep-22 13:59N 39°17' W 076°37'0 0.0
2018-Sep-22 13:29N 39°17' W 076°37'0 0.0
2018-Sep-22 13:02N 39°17' W 076°37'0 0.0
2018-Sep-22 12:59N 39°17' W 076°37'0 0.0
2018-Sep-22 12:29N 39°17' W 076°37'0 0.0
2018-Sep-22 12:02N 39°17' W 076°37'0 0.1
2018-Sep-22 11:59N 39°17' W 076°37'0 0.0
2018-Sep-22 11:29N 39°17' W 076°37'0 0.0
2018-Sep-22 11:02N 39°17' W 076°37'0 0.0
2018-Sep-22 10:59N 39°17' W 076°37'0 0.0
2018-Sep-22 10:23N 39°17' W 076°37'0 0.0
2018-Sep-22 10:02N 39°17' W 076°37'0 0.0
2018-Sep-22 09:56N 39°17' W 076°37'0 0.0
2018-Sep-22 09:29N 39°17' W 076°37'0 0.0
2018-Sep-22 09:02N 39°17' W 076°37'0 0.0
2018-Sep-22 08:59N 39°17' W 076°37'0 0.0
2018-Sep-22 08:29N 39°17' W 076°37'0 0.0
2018-Sep-22 07:59N 39°17' W 076°37'0 0.0
2018-Sep-22 07:29N 39°17' W 076°37'0 0.0
2018-Sep-22 07:02N 39°17' W 076°37'0 0.0
2018-Sep-22 06:59N 39°17' W 076°37'0 0.0
2018-Sep-22 06:29N 39°17' W 076°37'0 0.0
2018-Sep-22 05:59N 39°17' W 076°37'0 0.0
2018-Sep-22 05:29N 39°17' W 076°37'0 0.0
2018-Sep-22 05:02N 39°17' W 076°37'0 0.0
2018-Sep-22 04:59N 39°17' W 076°37'0 0.0
2018-Sep-22 04:29N 39°17' W 076°37'0 0.0
2018-Sep-22 04:02N 39°17' W 076°37'0 0.1
2018-Sep-22 03:59N 39°17' W 076°37'0 0.0
2018-Sep-22 03:29N 39°17' W 076°37'0 0.0
2018-Sep-22 03:02N 39°17' W 076°37'0 0.0
2018-Sep-22 02:59N 39°17' W 076°37'0 0.0
2018-Sep-22 02:29N 39°17' W 076°37'0 0.0
2018-Sep-22 01:59N 39°17' W 076°37'0 0.0
2018-Sep-22 01:29N 39°17' W 076°37'0 0.0
2018-Sep-22 00:59N 39°17' W 076°37'0 0.0
2018-Sep-22 00:23N 39°17' W 076°37'0 0.0
2018-Sep-21 23:59N 39°17' W 076°37'0 0.0
2018-Sep-21 23:29N 39°17' W 076°37'0 0.0
2018-Sep-21 22:59N 39°17' W 076°37'0 0.0
2018-Sep-21 22:29N 39°17' W 076°37'0 0.0
2018-Sep-21 22:02N 39°17' W 076°37'0 0.1
2018-Sep-21 21:59N 39°17' W 076°37'0 0.0
2018-Sep-21 21:23N 39°17' W 076°37'0 0.0
2018-Sep-21 21:02N 39°17' W 076°37'0 0.0
2018-Sep-21 20:59N 39°17' W 076°37'0 0.0
2018-Sep-21 20:29N 39°17' W 076°37'1 1.4
2018-Sep-21 20:03N 39°17' W 076°36'0 1.1
2018-Sep-21 19:58N 39°17' W 076°36'2 4.6
2018-Sep-21 19:30N 39°15' W 076°34'2 3.3
2018-Sep-21 19:01N 39°14' W 076°32'0 0.1
2018-Sep-21 18:58N 39°14' W 076°32'0 0.0
2018-Sep-21 18:28N 39°14' W 076°32'0 0.0
2018-Sep-21 17:52N 39°14' W 076°32'0 0.0
2018-Sep-21 17:30N 39°14' W 076°32'0 0.0
2018-Sep-21 17:03N 39°14' W 076°32'0 0.0
2018-Sep-21 17:00N 39°14' W 076°32'0 0.0
2018-Sep-21 16:29N 39°14' W 076°32'0 0.0
2018-Sep-21 16:03N 39°14' W 076°32'0 0.0
2018-Sep-21 16:00N 39°14' W 076°32'0 0.0
2018-Sep-21 15:30N 39°14' W 076°32'0 0.0
2018-Sep-21 15:03N 39°14' W 076°32'0 0.0
2018-Sep-21 15:00N 39°14' W 076°32'0 0.0
2018-Sep-21 14:30N 39°14' W 076°32'0 0.0
2018-Sep-21 13:31N 39°14' W 076°32'0 0.0
2018-Sep-21 13:03N 39°14' W 076°32'0 0.1
2018-Sep-21 13:00N 39°14' W 076°32'0 0.0
2018-Sep-21 12:30N 39°14' W 076°32'0 0.0
2018-Sep-21 12:03N 39°14' W 076°32'0 0.0
2018-Sep-21 12:00N 39°14' W 076°32'0 0.0
2018-Sep-21 11:30N 39°14' W 076°32'0 0.0
2018-Sep-21 11:03N 39°14' W 076°32'0 0.0
2018-Sep-21 11:00N 39°14' W 076°32'0 0.0
2018-Sep-21 10:30N 39°14' W 076°32'0 0.0
2018-Sep-21 10:03N 39°14' W 076°32'0 0.0
2018-Sep-21 10:00N 39°14' W 076°32'0 0.0
2018-Sep-21 09:30N 39°14' W 076°32'0 0.0
2018-Sep-21 09:03N 39°14' W 076°32'0 0.0
2018-Sep-21 09:00N 39°14' W 076°32'0 0.0
2018-Sep-21 08:30N 39°14' W 076°33'0 0.0
2018-Sep-21 08:03N 39°14' W 076°32'0 0.0
2018-Sep-21 08:00N 39°14' W 076°32'0 0.0
2018-Sep-21 07:30N 39°14' W 076°32'0 0.0
2018-Sep-21 07:03N 39°14' W 076°33'0 0.0
2018-Sep-21 07:00N 39°14' W 076°33'0 0.0
2018-Sep-21 06:30N 39°14' W 076°33'0 0.0
2018-Sep-21 06:03N 39°14' W 076°32'0 0.0
2018-Sep-21 06:00N 39°14' W 076°32'0 0.0
2018-Sep-21 05:30N 39°14' W 076°33'0 0.0
2018-Sep-21 05:03N 39°14' W 076°32'0 0.0
2018-Sep-21 05:00N 39°14' W 076°32'0 0.0
2018-Sep-21 04:31N 39°14' W 076°32'0 0.0
2018-Sep-21 04:03N 39°14' W 076°32'0 0.1
2018-Sep-21 04:00N 39°14' W 076°32'0 0.0
2018-Sep-21 03:30N 39°14' W 076°32'0 0.0
2018-Sep-21 03:03N 39°14' W 076°32'0 0.0
2018-Sep-21 03:00N 39°14' W 076°32'0 0.0
2018-Sep-21 02:29N 39°14' W 076°33'0 0.0
2018-Sep-21 02:03N 39°14' W 076°33'0 0.0
2018-Sep-21 02:00N 39°14' W 076°33'0 0.0
2018-Sep-21 01:31N 39°14' W 076°33'0 0.0
2018-Sep-21 01:03N 39°14' W 076°33'0 0.1
2018-Sep-21 01:01N 39°14' W 076°33'0 0.0
2018-Sep-21 00:30N 39°14' W 076°33'0 0.0
2018-Sep-21 00:03N 39°14' W 076°33'0 0.2
2018-Sep-21 00:00N 39°14' W 076°33'0 0.0
2018-Sep-20 23:30N 39°14' W 076°33'0 0.0
2018-Sep-20 23:03N 39°14' W 076°33'0 0.0
2018-Sep-20 23:00N 39°14' W 076°33'0 0.0
2018-Sep-20 22:30N 39°14' W 076°33'0 0.0
2018-Sep-20 22:03N 39°14' W 076°33'0 0.1
2018-Sep-20 22:00N 39°14' W 076°33'0 0.0
2018-Sep-20 21:30N 39°14' W 076°33'0 0.0
2018-Sep-20 21:03N 39°14' W 076°33'0 0.0
2018-Sep-20 21:00N 39°14' W 076°33'0 0.0
2018-Sep-20 20:30N 39°14' W 076°33'0 0.0
2018-Sep-20 20:03N 39°14' W 076°33'0 0.2
2018-Sep-20 20:00N 39°14' W 076°33'0 0.1
2018-Sep-20 19:30N 39°14' W 076°32'2 4.3
2018-Sep-20 19:03N 39°12' W 076°31'0 6.7
2018-Sep-20 19:00N 39°12' W 076°31'4 8.9
2018-Sep-20 18:30N 39°10' W 076°26'  

Dump ship's entire track history